Harrisonville, Illinois
Current Conditions -  °F | °C
As of 3:53 PM on Monday 24 Nov 2014 (Local Time) from KCPS Reporting Station
Broken Clouds Broken Clouds  
Wind Chill:   Ceiling: 8000
Heat Index:   Visibility: 10mi
Dew Point: -3°   Wind: 13mph
Humidity: 57%   Direction: 270°W
Pressure: 29.83"   Gusts: 20mph
Location:  38.2838°N, 90.3044°W
Report Text: KCPS 242153Z 27011G17KT 10SM SCT050 BKN080 05/M03 A2983 RMK AO2 SLP103 T00501028
Loading
Personal Weather Stations






























Interactive Weather Map New forecast layout! Learn more

10-Day Weather Forecast

Advertisements
Track Severe Weather on mobile